createdAt,value
2023-04-28T00:00:49.040Z,4.38
2023-04-28T00:04:50.828Z,4.55
2023-04-28T00:08:52.673Z,4.32
2023-04-28T00:12:54.425Z,4.35
2023-04-28T00:16:58.378Z,3.95
2023-04-28T00:21:01.542Z,4.85
2023-04-28T00:25:03.798Z,4.22
2023-04-28T00:29:06.596Z,4.30
2023-04-28T00:33:08.495Z,4.35
2023-04-28T00:37:10.319Z,4.05
2023-04-28T00:41:12.452Z,4.93
2023-04-28T00:45:14.450Z,3.73
2023-04-28T00:49:16.644Z,4.40
2023-04-28T00:53:18.366Z,4.33
2023-04-28T00:57:20.061Z,4.65
2023-04-28T01:01:21.835Z,4.50
2023-04-28T01:05:26.610Z,4.53
2023-04-28T01:09:28.507Z,3.90
2023-04-28T01:13:30.168Z,4.35
2023-04-28T01:17:31.944Z,4.43
2023-04-28T01:21:34.376Z,4.88
2023-04-28T01:25:36.069Z,5.60
2023-04-28T01:29:37.780Z,4.60
2023-04-28T01:33:39.467Z,4.68
2023-04-28T01:37:41.224Z,4.93
2023-04-28T01:41:43.007Z,4.50
2023-04-28T01:45:44.636Z,4.47
2023-04-28T01:49:48.117Z,4.80
2023-04-28T01:53:49.869Z,4.90
2023-04-28T01:57:51.657Z,5.03
2023-04-28T02:01:53.297Z,4.85
2023-04-28T02:05:55.257Z,4.50
2023-04-28T02:09:56.951Z,4.32
2023-04-28T02:13:58.590Z,4.15
2023-04-28T02:18:00.471Z,5.10
2023-04-28T02:22:02.177Z,4.10
2023-04-28T02:26:04.152Z,4.45
2023-04-28T02:30:06.970Z,4.50
2023-04-28T02:34:08.666Z,5.22
2023-04-28T02:38:10.317Z,4.18
2023-04-28T02:42:11.956Z,4.50
2023-04-28T02:46:13.688Z,4.70
2023-04-28T02:50:15.571Z,4.80
2023-04-28T02:54:17.639Z,4.25
2023-04-28T02:58:19.569Z,4.60
2023-04-28T03:02:23.103Z,4.15
2023-04-28T03:06:24.983Z,4.72
2023-04-28T03:10:26.892Z,4.57
2023-04-28T03:14:28.612Z,4.93
2023-04-28T03:18:30.469Z,4.22
2023-04-28T03:22:32.176Z,5.57
2023-04-28T03:27:26.989Z,4.68
2023-04-28T03:31:28.874Z,4.35
2023-04-28T03:35:30.740Z,5.07
2023-04-28T03:39:33.590Z,4.78
2023-04-28T03:43:38.403Z,4.28
2023-04-28T03:47:43.591Z,4.60
2023-04-28T03:51:57.452Z,4.65
2023-04-28T04:00:15.749Z,4.25
2023-04-28T04:04:18.323Z,4.90
2023-04-28T04:08:20.592Z,5.20
2023-04-28T04:12:28.396Z,4.68
2023-04-28T04:17:06.947Z,4.38
2023-04-28T04:21:09.496Z,4.32
2023-04-28T04:25:14.821Z,4.55
2023-04-28T04:29:22.206Z,4.60
2023-04-28T04:37:53.912Z,4.90
2023-04-28T04:42:17.145Z,5.60
2023-04-28T04:46:25.665Z,5.60
2023-04-28T04:50:41.901Z,6.28
2023-04-28T04:54:57.450Z,5.47
2023-04-28T04:59:06.428Z,5.88
2023-04-28T05:03:19.827Z,6.47
2023-04-28T05:07:30.890Z,5.75
2023-04-28T05:11:35.389Z,5.88
2023-04-28T05:15:39.813Z,5.70
2023-04-28T05:19:49.100Z,6.38
2023-04-28T05:28:18.262Z,5.30
2023-04-28T05:32:21.488Z,5.80
2023-04-28T05:36:23.296Z,5.75
2023-04-28T05:40:24.938Z,5.45
2023-04-28T05:44:26.860Z,6.25
2023-04-28T05:48:28.550Z,5.95
2023-04-28T05:52:30.233Z,7.20
2023-04-28T05:56:31.892Z,7.07
2023-04-28T06:00:34.406Z,6.18
2023-04-28T06:04:36.410Z,6.35
2023-04-28T06:08:39.004Z,7.47
2023-04-28T06:12:40.940Z,5.93
2023-04-28T06:16:42.836Z,6.47
2023-04-28T06:20:44.493Z,7.50
2023-04-28T06:24:46.187Z,6.53
2023-04-28T06:28:47.938Z,6.28
2023-04-28T06:32:49.717Z,5.93
2023-04-28T06:36:51.439Z,6.30
2023-04-28T06:40:53.178Z,6.32
2023-04-28T06:44:54.914Z,7.15
2023-04-28T06:48:56.597Z,7.30
2023-04-28T06:52:58.863Z,6.82
2023-04-28T06:57:00.938Z,6.80
2023-04-28T07:01:06.099Z,6.78
2023-04-28T07:05:08.805Z,6.70
2023-04-28T07:09:10.714Z,6.53
2023-04-28T07:13:12.343Z,4.10
2023-04-28T07:17:14.250Z,4.68
2023-04-28T07:21:15.956Z,4.05
2023-04-28T07:25:17.665Z,3.78
2023-04-28T07:29:19.411Z,3.53
2023-04-28T07:33:21.236Z,3.17
2023-04-28T07:37:23.222Z,2.40
2023-04-28T07:41:27.825Z,2.50
2023-04-28T07:45:29.813Z,2.90
2023-04-28T07:49:31.716Z,3.47
2023-04-28T07:53:34.170Z,2.92
2023-04-28T07:57:35.989Z,2.47
2023-04-28T08:01:37.762Z,3.20
2023-04-28T08:05:40.097Z,2.25
2023-04-28T08:09:44.268Z,2.90
2023-04-28T08:13:46.956Z,2.28
2023-04-28T08:17:48.808Z,1.88
2023-04-28T08:21:50.854Z,1.50
2023-04-28T08:25:52.581Z,1.80
2023-04-28T08:29:54.423Z,1.92
2023-04-28T08:33:56.144Z,1.80
2023-04-28T08:37:58.308Z,1.50
2023-04-28T08:42:05.815Z,1.80
2023-04-28T08:46:08.541Z,1.00
2023-04-28T08:50:12.367Z,1.38
2023-04-28T08:54:26.562Z,1.10
2023-04-28T08:58:28.497Z,1.35
2023-04-28T09:02:30.293Z,1.08
2023-04-28T09:06:36.504Z,0.80
2023-04-28T09:10:38.383Z,1.20
2023-04-28T09:14:40.041Z,0.82
2023-04-28T09:18:56.829Z,1.30
2023-04-28T09:23:17.873Z,1.52
2023-04-28T09:27:29.361Z,1.52
2023-04-28T09:31:32.402Z,1.70
2023-04-28T09:39:44.996Z,1.52
2023-04-28T09:43:46.698Z,1.10
2023-04-28T09:47:49.062Z,1.10
2023-04-28T09:51:53.265Z,1.00
2023-04-28T09:55:57.013Z,1.00
2023-04-28T09:59:59.532Z,0.90
2023-04-28T10:04:02.903Z,1.00
2023-04-28T10:08:05.070Z,1.17
2023-04-28T10:12:07.191Z,1.07
2023-04-28T10:16:10.053Z,1.00
2023-04-28T10:20:12.537Z,1.02
2023-04-28T10:24:18.255Z,1.60
2023-04-28T10:28:20.243Z,1.08
2023-04-28T10:32:26.499Z,1.03
2023-04-28T10:36:52.235Z,1.00
2023-04-28T10:40:54.367Z,1.00
2023-04-28T10:44:56.084Z,0.93
2023-04-28T10:48:58.057Z,1.10
2023-04-28T10:53:00.568Z,0.90
2023-04-28T10:57:19.058Z,1.30
2023-04-28T11:01:34.861Z,1.00
2023-04-28T11:05:37.098Z,0.80
2023-04-28T11:09:39.495Z,1.40
2023-04-28T11:13:42.627Z,1.00
2023-04-28T11:17:45.831Z,1.30
2023-04-28T11:21:49.070Z,1.35
2023-04-28T11:25:57.879Z,1.35
2023-04-28T11:30:01.636Z,1.83
2023-04-28T11:34:12.035Z,1.48
2023-04-28T11:38:13.674Z,1.30
2023-04-28T11:42:15.566Z,1.45
2023-04-28T11:46:18.910Z,1.57
2023-04-28T11:50:37.319Z,1.35
2023-04-28T11:54:42.322Z,1.60
2023-04-28T11:58:44.020Z,1.45
2023-04-28T12:02:45.999Z,1.38
2023-04-28T12:06:47.756Z,1.35
2023-04-28T12:11:09.838Z,1.15
2023-04-28T12:15:11.832Z,1.13
2023-04-28T12:19:15.153Z,1.33
2023-04-28T12:23:28.406Z,1.30
2023-04-28T12:27:31.594Z,1.00
2023-04-28T12:31:33.259Z,1.27
2023-04-28T12:35:34.903Z,1.58
2023-04-28T12:39:39.691Z,0.90
2023-04-28T12:43:44.479Z,1.05
2023-04-28T12:47:46.361Z,0.82
2023-04-28T12:51:49.710Z,0.80
2023-04-28T12:55:52.282Z,1.65
2023-04-28T12:59:55.479Z,1.45
2023-04-28T13:03:57.404Z,0.85
2023-04-28T13:08:00.534Z,1.33
2023-04-28T13:12:04.019Z,1.20
2023-04-28T13:16:05.919Z,1.98
2023-04-28T13:20:08.311Z,1.33
2023-04-28T13:24:10.798Z,0.68
2023-04-28T13:28:13.354Z,1.05
2023-04-28T13:32:15.052Z,1.17
2023-04-28T13:36:17.108Z,1.00
2023-04-28T13:40:19.108Z,1.10
2023-04-28T13:44:21.186Z,1.27
2023-04-28T13:48:23.726Z,1.33
2023-04-28T13:52:25.497Z,1.50
2023-04-28T13:56:27.219Z,3.20
2023-04-28T14:00:29.597Z,1.70
2023-04-28T14:04:31.502Z,3.70
2023-04-28T14:08:33.852Z,1.95
2023-04-28T14:12:37.657Z,1.38
2023-04-28T14:16:39.453Z,1.10
2023-04-28T14:20:41.239Z,2.00
2023-04-28T14:24:43.460Z,3.33
2023-04-28T14:28:45.136Z,2.00
2023-04-28T14:32:46.845Z,1.52
2023-04-28T14:36:48.598Z,1.43
2023-04-28T14:40:50.427Z,1.60
2023-04-28T14:44:54.470Z,1.43
2023-04-28T14:48:58.231Z,1.00
2023-04-28T14:53:05.376Z,1.00
2023-04-28T14:57:07.234Z,1.15
2023-04-28T15:01:09.243Z,1.10
2023-04-28T15:05:11.641Z,1.10
2023-04-28T15:09:21.195Z,0.85
2023-04-28T15:13:25.062Z,0.90
2023-04-28T15:17:27.045Z,0.82
2023-04-28T15:21:29.722Z,1.25
2023-04-28T15:29:32.993Z,1.20
2023-04-28T15:33:34.785Z,1.05
2023-04-28T15:37:46.778Z,1.20
2023-04-28T15:41:48.442Z,1.33
2023-04-28T15:45:50.396Z,1.17
2023-04-28T15:49:52.347Z,1.07
2023-04-28T15:53:55.741Z,0.90
2023-04-28T15:57:57.733Z,1.20
2023-04-28T16:01:59.540Z,2.10
2023-04-28T16:06:01.376Z,1.17
2023-04-28T16:10:05.409Z,0.90
2023-04-28T16:14:08.531Z,1.52
2023-04-28T16:18:10.437Z,0.90
2023-04-28T16:22:12.546Z,1.20
2023-04-28T16:26:15.183Z,1.30
2023-04-28T16:30:17.788Z,1.30
2023-04-28T16:34:19.472Z,1.75
2023-04-28T16:38:21.409Z,1.50
2023-04-28T16:42:23.184Z,1.00
2023-04-28T16:46:25.010Z,1.08
2023-04-28T16:50:26.742Z,1.47
2023-04-28T16:54:29.538Z,1.30
2023-04-28T16:58:31.393Z,1.25
2023-04-28T17:02:34.448Z,1.33
2023-04-28T17:06:36.351Z,1.30
2023-04-28T17:10:38.678Z,1.02
2023-04-28T17:14:40.794Z,1.35
2023-04-28T17:18:43.038Z,1.50
2023-04-28T17:22:44.698Z,1.38
2023-04-28T17:26:46.384Z,1.88
2023-04-28T17:30:48.019Z,2.60
2023-04-28T17:34:49.665Z,1.20
2023-04-28T17:38:52.180Z,1.83
2023-04-28T17:42:57.252Z,2.58
2023-04-28T17:47:00.122Z,1.58
2023-04-28T17:51:01.907Z,2.53
2023-04-28T17:55:03.741Z,1.70
2023-04-28T17:59:06.036Z,1.88
2023-04-28T18:03:07.847Z,2.20
2023-04-28T18:07:09.760Z,1.70
2023-04-28T18:11:11.472Z,2.28
2023-04-28T18:15:13.519Z,1.98
2023-04-28T18:19:15.349Z,1.83
2023-04-28T18:23:16.981Z,1.67
2023-04-28T18:27:19.211Z,2.85
2023-04-28T18:31:21.124Z,1.30
2023-04-28T18:35:22.842Z,1.88
2023-04-28T18:39:24.789Z,1.58
2023-04-28T18:43:27.850Z,3.50
2023-04-28T18:47:31.707Z,1.45
2023-04-28T18:51:33.591Z,1.70
2023-04-28T18:55:35.292Z,1.50
2023-04-28T18:59:37.054Z,2.10
2023-04-28T19:03:38.949Z,1.77
2023-04-28T19:07:42.000Z,2.37
2023-04-28T19:11:43.710Z,2.17
2023-04-28T19:15:47.203Z,2.08
2023-04-28T19:19:49.025Z,1.80
2023-04-28T19:23:50.880Z,1.80
2023-04-28T19:27:52.593Z,1.90
2023-04-28T19:31:54.465Z,1.70
2023-04-28T19:35:56.152Z,2.10
2023-04-28T19:39:57.881Z,1.98
2023-04-28T19:43:59.971Z,2.13
2023-04-28T19:48:02.106Z,2.10
2023-04-28T19:52:05.169Z,2.00
2023-04-28T19:56:09.901Z,2.28
2023-04-28T20:00:13.199Z,2.40
2023-04-28T20:04:15.066Z,3.00
2023-04-28T20:08:16.922Z,3.00
2023-04-28T20:12:19.681Z,1.95
2023-04-28T20:16:24.756Z,1.85
2023-04-28T20:20:26.606Z,2.13
2023-04-28T20:24:29.336Z,1.77
2023-04-28T20:28:31.292Z,1.83
2023-04-28T20:32:32.954Z,1.75
2023-04-28T20:36:34.679Z,1.55
2023-04-28T20:40:36.611Z,1.60
2023-04-28T20:44:39.021Z,1.58
2023-04-28T20:48:41.084Z,1.80
2023-04-28T20:52:42.733Z,1.65
2023-04-28T20:56:45.250Z,1.35
2023-04-28T21:00:46.891Z,1.60
2023-04-28T21:04:48.884Z,1.40
2023-04-28T21:08:50.834Z,1.90
2023-04-28T21:12:52.560Z,1.52
2023-04-28T21:16:54.612Z,1.55
2023-04-28T21:20:56.654Z,1.73
2023-04-28T21:24:58.353Z,1.75
2023-04-28T21:29:00.338Z,2.00
2023-04-28T21:33:04.856Z,2.00
2023-04-28T21:37:06.825Z,1.90
2023-04-28T21:41:08.939Z,2.50
2023-04-28T21:45:11.304Z,1.93
2023-04-28T21:49:13.801Z,2.42
2023-04-28T21:53:15.764Z,2.88
2023-04-28T21:57:17.410Z,2.50
2023-04-28T22:01:19.484Z,2.20
2023-04-28T22:05:21.693Z,2.17
2023-04-28T22:09:23.519Z,2.20
2023-04-28T22:13:25.171Z,2.80
2023-04-28T22:17:27.379Z,2.15
2023-04-28T22:21:29.276Z,2.07
2023-04-28T22:25:31.173Z,1.95
2023-04-28T22:29:32.901Z,2.70
2023-04-28T22:33:34.706Z,2.63
2023-04-28T22:37:37.874Z,2.67
2023-04-28T22:41:39.526Z,3.58
2023-04-28T22:45:43.101Z,4.45
2023-04-28T22:49:44.767Z,4.68
2023-04-28T22:53:47.434Z,4.43
2023-04-28T22:57:49.212Z,4.75
2023-04-28T23:01:51.129Z,4.75
2023-04-28T23:05:52.908Z,5.40
2023-04-28T23:09:54.703Z,6.63
2023-04-28T23:13:56.493Z,8.05
2023-04-28T23:17:58.280Z,8.93
2023-04-28T23:22:00.022Z,10.20
2023-04-28T23:26:02.081Z,11.52
2023-04-28T23:30:04.006Z,11.27
2023-04-28T23:34:09.149Z,12.15
2023-04-28T23:38:11.860Z,12.95
2023-04-28T23:42:13.522Z,13.77
2023-04-28T23:46:15.440Z,12.48
2023-04-28T23:50:17.794Z,15.02
2023-04-28T23:54:19.502Z,14.60
2023-04-28T23:58:21.148Z,15.13
